Time;durP1;ratioP1;P1;durP2;ratioP2;P2;SDS_P1;SDS_P2;PMS_P1;PMS_P2;Temp;Humidity;BMP_temperature;BMP_pressure;BME280_temperature;BME280_humidity;BME280_pressure;Samples;Min_cycle;Max_cycle;Signal;HPM_P1;HPM_P2
2022/08/08 00:08:47;;;;;;;;;;;;;;;25.17;35.84;100564.16;20445860;28;101219;-76
2022/08/08 00:18:58;;;;;;;;;;;;;;;25.09;36.56;100556.91;20443610;27;99542;-76
2022/08/08 00:29:03;;;;;;;;;;;;;;;24.98;37.17;100557.88;20446610;28;99899;-76
2022/08/08 00:39:10;;;;;;;;;;;;;;;24.95;37.22;100537.00;20444699;28;99910;-78
2022/08/08 00:49:10;;;;;;;;;;;;;;;24.92;37.17;100535.44;20450113;28;98586;-77
2022/08/08 00:59:34;;;;;;;;;;;;;;;25.09;37.16;100541.00;20452831;28;100695;-76
2022/08/08 01:09:53;;;;;;;;;;;;;;;25.30;37.03;100535.53;20443452;28;98835;-76
2022/08/08 01:20:02;;;;;;;;;;;;;;;25.48;36.98;100538.31;20431418;28;101007;-76
2022/08/08 01:30:23;;;;;;;;;;;;;;;25.27;37.49;100527.88;20434906;28;99248;-76
2022/08/08 01:40:43;;;;;;;;;;;;;;;25.01;38.04;100541.72;20447561;28;99083;-76
2022/08/08 01:50:52;;;;;;;;;;;;;;;24.99;38.36;100527.78;20441786;28;100525;-77
2022/08/08 02:01:07;;;;;;;;;;;;;;;24.66;38.99;100524.56;20425329;28;98570;-78
2022/08/08 02:11:10;;;;;;;;;;;;;;;25.07;38.22;100519.13;20415110;28;99579;-76
2022/08/08 02:31:40;;;;;;;;;;;;;;;25.27;37.65;100538.47;20411158;28;98561;-75
2022/08/08 02:41:56;;;;;;;;;;;;;;;25.17;37.77;100551.75;20422622;28;100896;-76
2022/08/08 02:52:23;;;;;;;;;;;;;;;24.72;38.94;100549.66;20416352;28;98916;-76
2022/08/08 03:02:42;;;;;;;;;;;;;;;24.46;39.36;100547.50;20414998;28;101325;-77
2022/08/08 03:12:42;;;;;;;;;;;;;;;24.32;39.94;100561.13;20423298;28;98400;-77
2022/08/08 03:22:49;;;;;;;;;;;;;;;24.43;40.23;100569.78;20426505;28;99626;-77
2022/08/08 03:43:12;;;;;;;;;;;;;;;24.36;40.74;100575.75;20431059;28;101000;-77
2022/08/08 03:53:15;;;;;;;;;;;;;;;24.75;39.76;100576.69;20424741;28;97753;-76
2022/08/08 04:03:16;;;;;;;;;;;;;;;24.83;39.69;100573.38;20448011;28;98770;-75
2022/08/08 04:13:17;;;;;;;;;;;;;;;24.74;39.39;100568.88;20438437;28;98992;-77
2022/08/08 04:23:17;;;;;;;;;;;;;;;24.97;39.07;100569.44;20454166;28;97921;-77
2022/08/08 04:33:17;;;;;;;;;;;;;;;24.62;40.27;100592.81;20451864;28;100973;-77
2022/08/08 04:43:19;;;;;;;;;;;;;;;24.51;40.57;100592.94;20461053;28;101279;-77
2022/08/08 04:53:19;;;;;;;;;;;;;;;24.25;41.18;100601.34;20462944;28;100991;-77
2022/08/08 05:03:20;;;;;;;;;;;;;;;23.96;41.70;100620.59;20461132;28;98878;-78
2022/08/08 05:13:21;;;;;;;;;;;;;;;24.40;41.08;100616.84;20450659;28;97622;-77
2022/08/08 05:23:21;;;;;;;;;;;;;;;24.68;40.29;100610.00;20476008;28;97870;-77
2022/08/08 05:33:21;;;;;;;;;;;;;;;24.49;39.92;100613.41;20454642;28;98835;-76
2022/08/08 05:43:23;;;;;;;;;;;;;;;24.32;40.04;100616.72;20449088;28;98158;-76
2022/08/08 05:53:27;;;;;;;;;;;;;;;24.42;40.21;100609.63;20476596;28;100979;-76
2022/08/08 06:03:28;;;;;;;;;;;;;;;24.59;39.73;100616.06;20472549;28;99439;-74
2022/08/08 06:13:28;;;;;;;;;;;;;;;24.42;39.68;100622.84;20466812;28;98463;-75
2022/08/08 06:23:29;;;;;;;;;;;;;;;24.66;39.03;100621.69;20470869;28;100507;-77
2022/08/08 06:33:35;;;;;;;;;;;;;;;24.98;38.33;100631.25;20479466;28;97881;-75
2022/08/08 06:43:39;;;;;;;;;;;;;;;25.05;36.87;100622.59;20471591;28;98656;-76
2022/08/08 06:53:39;;;;;;;;;;;;;;;24.96;37.02;100625.22;20450236;28;99025;-77
2022/08/08 07:03:59;;;;;;;;;;;;;;;24.97;37.22;100630.38;20461684;28;97834;-75
2022/08/08 07:14:03;;;;;;;;;;;;;;;25.14;36.69;100628.03;20475325;27;100946;-75
2022/08/08 07:24:08;;;;;;;;;;;;;;;25.23;37.06;100635.13;20468725;28;99389;-76
2022/08/08 07:34:11;;;;;;;;;;;;;;;25.31;36.77;100632.63;20461076;28;101504;-77
2022/08/08 07:44:13;;;;;;;;;;;;;;;25.22;36.80;100646.72;20453075;28;99062;-76
2022/08/08 07:54:14;;;;;;;;;;;;;;;25.36;36.50;100638.34;20477254;28;98324;-78
2022/08/08 08:04:15;;;;;;;;;;;;;;;25.48;35.84;100662.91;20471473;28;104587;-75
2022/08/08 08:14:17;;;;;;;;;;;;;;;25.57;35.81;100658.59;20473633;28;99131;-78
2022/08/08 08:24:18;;;;;;;;;;;;;;;25.63;34.95;100651.88;20468263;28;100378;-73
2022/08/08 08:34:18;;;;;;;;;;;;;;;25.70;34.74;100653.00;20443178;28;101575;-74
2022/08/08 08:44:19;;;;;;;;;;;;;;;25.84;34.14;100659.66;20469579;28;99173;-73
2022/08/08 08:54:22;;;;;;;;;;;;;;;25.93;34.18;100677.38;20461854;28;98595;-75
2022/08/08 09:04:24;;;;;;;;;;;;;;;26.02;34.67;100671.22;20469850;28;98471;-76
2022/08/08 09:14:25;;;;;;;;;;;;;;;26.00;33.77;100672.31;20497064;28;100598;-74
2022/08/08 09:24:27;;;;;;;;;;;;;;;26.01;34.44;100661.59;20497887;28;97553;-73
2022/08/08 09:34:30;;;;;;;;;;;;;;;25.99;34.96;100670.66;20492653;28;98619;-74
2022/08/08 09:44:30;;;;;;;;;;;;;;;25.94;34.44;100670.25;20502646;28;98762;-73
2022/08/08 09:54:34;;;;;;;;;;;;;;;25.88;38.55;100669.03;20491053;28;98815;-74
2022/08/08 10:04:34;;;;;;;;;;;;;;;25.76;38.33;100652.44;20481089;28;100318;-73
2022/08/08 10:14:36;;;;;;;;;;;;;;;25.81;39.13;100657.31;20460166;28;99436;-74
2022/08/08 10:24:44;;;;;;;;;;;;;;;25.77;40.00;100667.38;20482778;28;97128;-73
2022/08/08 10:34:51;;;;;;;;;;;;;;;25.76;40.14;100665.69;20492057;28;98171;-76
2022/08/08 10:44:58;;;;;;;;;;;;;;;25.69;40.72;100646.00;20487461;28;98053;-77
2022/08/08 10:55:09;;;;;;;;;;;;;;;25.73;41.65;100634.13;20501813;28;98365;-77
2022/08/08 11:05:15;;;;;;;;;;;;;;;25.77;40.78;100637.31;20502337;28;97865;-75
2022/08/08 11:15:17;;;;;;;;;;;;;;;25.92;38.66;100635.09;20510566;28;98892;-75
2022/08/08 11:25:18;;;;;;;;;;;;;;;26.17;38.43;100653.03;20497746;28;97809;-73
2022/08/08 11:35:19;;;;;;;;;;;;;;;26.37;39.15;100653.78;20479777;28;97967;-73
2022/08/08 11:45:20;;;;;;;;;;;;;;;26.45;40.17;100655.72;20466638;28;101550;-74
2022/08/08 11:55:25;;;;;;;;;;;;;;;26.57;41.14;100655.50;20465529;27;99228;-75
2022/08/08 12:05:32;;;;;;;;;;;;;;;26.61;41.14;100648.91;20477189;28;98690;-76
2022/08/08 12:15:36;;;;;;;;;;;;;;;26.53;42.13;100645.16;20456842;28;101785;-74
2022/08/08 12:25:37;;;;;;;;;;;;;;;26.48;43.84;100644.78;20456801;28;98554;-74
2022/08/08 12:35:38;;;;;;;;;;;;;;;26.48;44.20;100671.34;20454330;28;101441;-73
2022/08/08 12:45:40;;;;;;;;;;;;;;;26.32;45.50;100664.00;20445600;28;98581;-75
2022/08/08 12:55:49;;;;;;;;;;;;;;;26.19;45.03;100666.16;20434014;28;100055;-75
2022/08/08 13:06:00;;;;;;;;;;;;;;;26.04;46.28;100681.69;20456390;28;98740;-74
2022/08/08 13:16:20;;;;;;;;;;;;;;;25.98;47.47;100680.44;20459514;28;102116;-76
2022/08/08 13:26:20;;;;;;;;;;;;;;;25.72;48.60;100682.88;20467159;28;99764;-76
2022/08/08 13:36:21;;;;;;;;;;;;;;;25.71;48.24;100679.38;20465814;28;100761;-76
2022/08/08 13:46:21;;;;;;;;;;;;;;;25.63;48.00;100676.56;20453532;28;99891;-76
2022/08/08 13:56:35;;;;;;;;;;;;;;;25.74;47.61;100664.97;20456312;28;98242;-74
2022/08/08 14:06:42;;;;;;;;;;;;;;;25.83;46.97;100661.47;20452864;28;98409;-72
2022/08/08 14:16:48;;;;;;;;;;;;;;;26.02;46.04;100659.75;20453121;28;98994;-76
2022/08/08 14:26:53;;;;;;;;;;;;;;;26.11;45.19;100655.41;20472166;28;99347;-79
2022/08/08 14:36:53;;;;;;;;;;;;;;;26.16;44.92;100651.34;20470116;28;97792;-76
2022/08/08 14:46:57;;;;;;;;;;;;;;;26.19;43.44;100640.44;20473794;28;98742;-77
2022/08/08 14:56:58;;;;;;;;;;;;;;;26.26;41.53;100653.16;20478974;28;98088;-75
2022/08/08 15:06:58;;;;;;;;;;;;;;;26.27;41.64;100655.66;20456247;28;98275;-78
2022/08/08 15:16:58;;;;;;;;;;;;;;;26.17;41.57;100652.19;20444404;28;97813;-75
2022/08/08 15:26:59;;;;;;;;;;;;;;;26.15;40.79;100652.34;20460113;28;98130;-74
2022/08/08 15:37:02;;;;;;;;;;;;;;;26.11;41.53;100645.66;20462560;28;98795;-74
2022/08/08 15:47:02;;;;;;;;;;;;;;;26.27;41.41;100649.50;20426612;28;99171;-73
2022/08/08 15:57:03;;;;;;;;;;;;;;;26.27;42.14;100645.03;20451099;28;98593;-73
2022/08/08 16:07:04;;;;;;;;;;;;;;;26.32;44.43;100652.56;20440023;28;98079;-73
2022/08/08 16:17:04;;;;;;;;;;;;;;;26.72;42.27;100646.06;20448789;28;98409;-73
2022/08/08 16:27:04;;;;;;;;;;;;;;;26.51;42.31;100638.34;20433835;28;98888;-73
2022/08/08 16:37:05;;;;;;;;;;;;;;;26.33;44.82;100639.13;20468026;28;98629;-74
2022/08/08 16:47:15;;;;;;;;;;;;;;;26.07;45.81;100646.91;20449587;27;101705;-74
2022/08/08 16:57:17;;;;;;;;;;;;;;;25.78;46.19;100639.88;20469530;28;97963;-73
2022/08/08 17:07:18;;;;;;;;;;;;;;;25.82;44.68;100658.97;20437763;28;97634;-75
2022/08/08 17:17:19;;;;;;;;;;;;;;;25.68;44.29;100649.63;20461794;28;97828;-74
2022/08/08 17:27:19;;;;;;;;;;;;;;;25.56;45.27;100672.81;20453016;28;98815;-72
2022/08/08 17:37:20;;;;;;;;;;;;;;;25.36;46.16;100677.28;20456891;28;99331;-73
2022/08/08 17:47:22;;;;;;;;;;;;;;;25.01;46.98;100691.88;20461150;28;98891;-74
2022/08/08 17:57:23;;;;;;;;;;;;;;;24.84;47.40;100693.38;20453152;28;101257;-74
2022/08/08 18:07:23;;;;;;;;;;;;;;;24.60;48.56;100692.72;20472069;28;101377;-74
2022/08/08 18:17:25;;;;;;;;;;;;;;;24.46;49.77;100690.44;20436394;28;99992;-75
2022/08/08 18:27:26;;;;;;;;;;;;;;;24.32;50.17;100701.41;20448543;28;98276;-75
2022/08/08 18:37:27;;;;;;;;;;;;;;;24.14;51.41;100710.78;20477010;28;98786;-75
2022/08/08 18:47:27;;;;;;;;;;;;;;;23.91;51.61;100733.00;20457997;28;98526;-72
2022/08/08 18:57:28;;;;;;;;;;;;;;;23.70;51.24;100740.91;20470270;28;98296;-75
2022/08/08 19:07:28;;;;;;;;;;;;;;;23.35;51.19;100742.81;20504969;28;97559;-75
2022/08/08 19:17:29;;;;;;;;;;;;;;;23.36;50.83;100749.78;20469373;28;98435;-74
2022/08/08 19:27:29;;;;;;;;;;;;;;;23.17;51.00;100750.44;20467353;28;99331;-74
2022/08/08 19:37:30;;;;;;;;;;;;;;;23.20;50.77;100754.66;20448170;28;98587;-74
2022/08/08 19:47:30;;;;;;;;;;;;;;;23.60;49.90;100748.78;20462490;28;98077;-74
2022/08/08 19:57:31;;;;;;;;;;;;;;;23.84;50.73;100737.97;20485833;28;98219;-74
2022/08/08 20:07:32;;;;;;;;;;;;;;;23.96;50.37;100733.47;20480353;27;97976;-73
2022/08/08 20:17:32;;;;;;;;;;;;;;;24.07;50.75;100722.00;20479051;28;98864;-73
2022/08/08 20:27:32;;;;;;;;;;;;;;;24.13;50.80;100724.97;20491514;28;97596;-73
2022/08/08 20:37:33;;;;;;;;;;;;;;;24.11;50.97;100739.31;20479974;28;101062;-73
2022/08/08 20:47:34;;;;;;;;;;;;;;;24.14;50.74;100731.09;20483909;28;98433;-73
2022/08/08 20:57:34;;;;;;;;;;;;;;;24.17;50.09;100736.13;20490653;28;98517;-73
2022/08/08 21:07:34;;;;;;;;;;;;;;;24.20;49.88;100741.16;20480281;28;98760;-74
2022/08/08 21:17:37;;;;;;;;;;;;;;;24.21;49.59;100734.06;20465966;28;99103;-73
2022/08/08 21:27:38;;;;;;;;;;;;;;;24.24;49.44;100742.59;20459452;28;98250;-75
2022/08/08 21:37:38;;;;;;;;;;;;;;;23.17;52.01;100777.69;20452276;28;97533;-75
2022/08/08 21:47:39;;;;;;;;;;;;;;;22.95;52.42;100785.59;20487688;28;97939;-75
2022/08/08 21:57:39;;;;;;;;;;;;;;;22.98;52.15;100791.47;20486178;28;97955;-75
2022/08/08 22:07:42;;;;;;;;;;;;;;;23.48;50.91;100791.06;20476671;28;98604;-74
2022/08/08 22:17:42;;;;;;;;;;;;;;;23.81;50.07;100770.81;20489962;28;100619;-74
2022/08/08 22:27:43;;;;;;;;;;;;;;;24.07;49.69;100772.25;20494865;28;98269;-73
2022/08/08 22:37:45;;;;;;;;;;;;;;;24.26;49.33;100784.78;20494119;28;97541;-73
2022/08/08 22:47:45;;;;;;;;;;;;;;;24.40;48.88;100787.09;20462088;28;101848;-74
2022/08/08 22:57:45;;;;;;;;;;;;;;;24.54;48.48;100777.16;20444635;28;100456;-75
2022/08/08 23:07:46;;;;;;;;;;;;;;;24.64;48.18;100770.06;20448083;28;98820;-75
2022/08/08 23:17:46;;;;;;;;;;;;;;;24.75;47.93;100759.41;20458683;28;97576;-74
2022/08/08 23:27:46;;;;;;;;;;;;;;;24.83;48.10;100764.06;20444734;28;98621;-74
2022/08/08 23:37:46;;;;;;;;;;;;;;;24.90;47.75;100767.00;20450918;28;98846;-73
2022/08/08 23:47:47;;;;;;;;;;;;;;;24.96;47.61;100779.69;20448417;28;100761;-73
2022/08/08 23:57:47;;;;;;;;;;;;;;;25.01;47.54;100772.22;20452549;28;98766;-73
